createdAt,value
2019-06-15T00:01:39.247Z,0.93
2019-06-15T00:04:08.075Z,1.10
2019-06-15T00:06:36.797Z,1.10
2019-06-15T00:09:06.834Z,0.80
2019-06-15T00:11:35.616Z,1.17
2019-06-15T00:14:05.019Z,1.00
2019-06-15T00:16:33.777Z,1.47
2019-06-15T00:19:02.550Z,0.80
2019-06-15T00:21:31.679Z,0.80
2019-06-15T00:24:00.406Z,0.70
2019-06-15T00:26:29.351Z,0.90
2019-06-15T00:28:58.794Z,0.80
2019-06-15T00:31:27.816Z,1.00
2019-06-15T00:33:56.519Z,1.10
2019-06-15T00:36:25.813Z,1.10
2019-06-15T00:38:54.525Z,1.10
2019-06-15T00:41:23.242Z,0.83
2019-06-15T00:43:52.516Z,0.90
2019-06-15T00:46:21.293Z,1.10
2019-06-15T00:48:50.690Z,1.00
2019-06-15T00:51:20.109Z,1.20
2019-06-15T00:53:49.147Z,0.90
2019-06-15T00:56:18.583Z,1.17
2019-06-15T00:58:47.595Z,1.00
2019-06-15T01:01:16.311Z,1.10
2019-06-15T01:03:45.012Z,1.10
2019-06-15T01:06:13.746Z,1.07
2019-06-15T01:08:42.762Z,1.00
2019-06-15T01:11:11.479Z,1.07
2019-06-15T01:13:40.726Z,1.30
2019-06-15T01:16:09.452Z,1.07
2019-06-15T01:18:39.158Z,1.10
2019-06-15T01:21:08.482Z,1.00
2019-06-15T01:23:37.455Z,1.20
2019-06-15T01:26:06.163Z,1.00
2019-06-15T01:28:35.514Z,1.23
2019-06-15T01:31:04.283Z,1.20
2019-06-15T01:33:32.999Z,1.00
2019-06-15T01:36:01.965Z,1.20
2019-06-15T01:38:30.660Z,1.07
2019-06-15T01:40:59.373Z,0.93
2019-06-15T01:43:28.796Z,1.37
2019-06-15T01:45:57.891Z,1.30
2019-06-15T01:48:26.666Z,1.00
2019-06-15T01:50:55.606Z,1.00
2019-06-15T01:53:24.311Z,1.30
2019-06-15T01:55:53.014Z,1.40
2019-06-15T01:58:22.328Z,1.20
2019-06-15T02:00:51.651Z,1.17
2019-06-15T02:03:20.538Z,1.30
2019-06-15T02:05:49.561Z,1.07
2019-06-15T02:08:19.148Z,1.07
2019-06-15T02:10:47.867Z,1.10
2019-06-15T02:13:16.779Z,1.43
2019-06-15T02:15:45.497Z,1.23
2019-06-15T02:18:14.671Z,1.33
2019-06-15T02:20:43.611Z,1.13
2019-06-15T02:23:12.329Z,1.40
2019-06-15T02:25:41.118Z,1.10
2019-06-15T02:28:10.394Z,1.13
2019-06-15T02:30:39.112Z,1.13
2019-06-15T02:33:08.353Z,1.07
2019-06-15T02:35:37.090Z,1.27
2019-06-15T02:38:05.795Z,1.53
2019-06-15T02:40:34.517Z,1.93
2019-06-15T02:43:03.838Z,2.00
2019-06-15T02:45:32.555Z,1.50
2019-06-15T02:48:01.268Z,1.70
2019-06-15T02:50:30.903Z,1.70
2019-06-15T02:53:00.046Z,1.77
2019-06-15T02:55:29.278Z,1.50
2019-06-15T02:57:58.250Z,1.80
2019-06-15T03:00:37.640Z,1.53
2019-06-15T03:03:07.235Z,1.73
2019-06-15T03:05:36.117Z,1.80
2019-06-15T03:08:05.266Z,1.70
2019-06-15T03:10:34.766Z,1.80
2019-06-15T03:13:03.486Z,1.50
2019-06-15T03:15:32.199Z,1.47
2019-06-15T03:18:01.313Z,1.40
2019-06-15T03:20:30.476Z,1.70
2019-06-15T03:22:59.191Z,1.47
2019-06-15T03:25:28.162Z,1.77
2019-06-15T03:27:57.127Z,1.40
2019-06-15T03:30:25.840Z,1.87
2019-06-15T03:32:54.722Z,1.60
2019-06-15T03:35:23.406Z,1.70
2019-06-15T03:37:52.583Z,2.10
2019-06-15T03:40:21.682Z,1.90
2019-06-15T03:42:50.528Z,2.10
2019-06-15T03:45:19.230Z,1.83
2019-06-15T03:47:48.375Z,1.70
2019-06-15T03:50:17.653Z,1.70
2019-06-15T03:52:46.511Z,2.20
2019-06-15T03:55:15.885Z,2.10
2019-06-15T03:57:44.579Z,1.70
2019-06-15T04:00:35.931Z,2.00
2019-06-15T04:03:04.630Z,1.90
2019-06-15T04:05:33.470Z,1.80
2019-06-15T04:08:02.563Z,1.50
2019-06-15T04:10:32.121Z,2.07
2019-06-15T04:13:00.853Z,1.80
2019-06-15T04:15:29.711Z,1.77
2019-06-15T04:17:58.428Z,2.00
2019-06-15T04:20:27.575Z,1.90
2019-06-15T04:22:56.592Z,1.90
2019-06-15T04:25:25.567Z,2.00
2019-06-15T04:27:54.293Z,1.57
2019-06-15T04:30:23.036Z,1.97
2019-06-15T04:32:51.779Z,1.70
2019-06-15T04:35:20.495Z,1.90
2019-06-15T04:37:49.346Z,1.63
2019-06-15T04:40:18.129Z,1.57
2019-06-15T04:42:46.851Z,1.30
2019-06-15T04:45:15.969Z,1.80
2019-06-15T04:47:44.911Z,2.00
2019-06-15T04:50:14.044Z,1.60
2019-06-15T04:52:43.115Z,1.80
2019-06-15T04:55:11.890Z,1.40
2019-06-15T04:57:40.713Z,1.83
2019-06-15T05:00:10.293Z,2.10
2019-06-15T05:02:39.091Z,2.03
2019-06-15T05:05:07.990Z,1.90
2019-06-15T05:07:37.323Z,1.80
2019-06-15T05:10:06.147Z,1.87
2019-06-15T05:12:35.183Z,1.60
2019-06-15T05:15:04.396Z,1.90
2019-06-15T05:17:33.492Z,1.90
2019-06-15T05:20:02.216Z,1.60
2019-06-15T05:22:31.470Z,1.60
2019-06-15T05:25:00.199Z,1.90
2019-06-15T05:27:28.983Z,2.10
2019-06-15T05:29:57.731Z,1.80
2019-06-15T05:32:26.475Z,1.90
2019-06-15T05:34:55.242Z,1.80
2019-06-15T05:37:23.966Z,1.97
2019-06-15T05:39:52.673Z,1.60
2019-06-15T05:42:21.615Z,1.80
2019-06-15T05:44:50.683Z,2.03
2019-06-15T05:47:20.110Z,1.70
2019-06-15T05:49:49.127Z,1.70
2019-06-15T05:52:18.275Z,1.37
2019-06-15T05:54:47.476Z,1.30
2019-06-15T05:57:21.514Z,1.57
2019-06-15T05:59:47.171Z,1.70
2019-06-15T06:02:16.046Z,1.20
2019-06-15T06:04:44.874Z,1.93
2019-06-15T06:07:14.248Z,1.83
2019-06-15T06:09:42.999Z,1.67
2019-06-15T06:12:13.158Z,1.60
2019-06-15T06:14:41.919Z,1.43
2019-06-15T06:17:10.639Z,1.47
2019-06-15T06:19:39.351Z,1.40
2019-06-15T06:22:08.626Z,1.30
2019-06-15T06:24:37.519Z,1.30
2019-06-15T06:27:06.464Z,1.33
2019-06-15T06:29:35.911Z,1.60
2019-06-15T06:32:04.709Z,1.53
2019-06-15T06:34:33.414Z,1.47
2019-06-15T06:37:02.569Z,1.43
2019-06-15T06:39:31.275Z,1.20
2019-06-15T06:42:00.302Z,1.53
2019-06-15T06:44:29.191Z,1.40
2019-06-15T06:46:57.948Z,1.60
2019-06-15T06:49:26.659Z,1.53
2019-06-15T06:51:55.803Z,1.60
2019-06-15T06:54:24.565Z,1.27
2019-06-15T06:56:53.795Z,1.60
2019-06-15T06:59:23.096Z,1.23
2019-06-15T07:01:52.092Z,1.80
2019-06-15T07:04:20.889Z,1.60
2019-06-15T07:06:50.067Z,1.70
2019-06-15T07:09:19.034Z,1.63
2019-06-15T07:11:48.655Z,1.47
2019-06-15T07:14:18.066Z,1.30
2019-06-15T07:16:46.783Z,1.17
2019-06-15T07:19:15.515Z,1.27
2019-06-15T07:21:44.672Z,1.03
2019-06-15T07:24:14.808Z,1.00
2019-06-15T07:26:43.518Z,0.90
2019-06-15T07:29:12.742Z,1.33
2019-06-15T07:31:41.786Z,1.07
2019-06-15T07:34:10.507Z,1.03
2019-06-15T07:36:39.408Z,0.93
2019-06-15T07:39:08.127Z,0.80
2019-06-15T07:41:37.074Z,0.87
2019-06-15T07:44:05.854Z,1.17
2019-06-15T07:46:34.813Z,1.30
2019-06-15T07:49:05.026Z,0.87
2019-06-15T07:51:34.586Z,0.83
2019-06-15T07:54:03.311Z,0.90
2019-06-15T07:56:32.026Z,0.60
2019-06-15T07:59:01.357Z,1.00
2019-06-15T08:01:30.094Z,0.93
2019-06-15T08:03:59.325Z,0.93
2019-06-15T08:06:28.190Z,1.00
2019-06-15T08:08:57.082Z,0.87
2019-06-15T08:11:25.859Z,1.03
2019-06-15T08:13:55.461Z,0.90
2019-06-15T08:16:24.200Z,0.83
2019-06-15T08:18:53.072Z,0.80
2019-06-15T08:21:22.211Z,0.80
2019-06-15T08:23:51.027Z,0.70
2019-06-15T08:26:19.977Z,0.80
2019-06-15T08:28:48.743Z,0.80
2019-06-15T08:31:17.606Z,0.70
2019-06-15T08:33:46.391Z,0.60
2019-06-15T08:36:16.960Z,0.90
2019-06-15T08:38:45.742Z,0.70
2019-06-15T08:41:14.464Z,0.90
2019-06-15T08:43:43.730Z,0.70
2019-06-15T08:46:12.450Z,0.60
2019-06-15T08:48:41.695Z,0.97
2019-06-15T08:51:10.711Z,0.50
2019-06-15T08:53:39.420Z,0.60
2019-06-15T08:56:08.242Z,0.70
2019-06-15T08:58:37.109Z,0.60
2019-06-15T09:01:06.007Z,0.67
2019-06-15T09:03:34.729Z,0.67
2019-06-15T09:06:04.528Z,0.70
2019-06-15T09:08:33.238Z,0.60
2019-06-15T09:11:02.664Z,0.60
2019-06-15T09:13:31.696Z,0.60
2019-06-15T09:16:00.427Z,0.50
2019-06-15T09:18:29.490Z,0.60
2019-06-15T09:20:58.605Z,0.60
2019-06-15T09:23:27.310Z,0.37
2019-06-15T09:25:56.168Z,0.80
2019-06-15T09:28:24.939Z,0.70
2019-06-15T09:30:53.719Z,0.67
2019-06-15T09:33:23.763Z,0.50
2019-06-15T09:35:52.580Z,0.50
2019-06-15T09:38:21.515Z,0.63
2019-06-15T09:40:50.250Z,0.40
2019-06-15T09:43:18.987Z,0.50
2019-06-15T09:45:47.747Z,0.60
2019-06-15T09:48:16.597Z,0.80
2019-06-15T09:50:45.928Z,0.50
2019-06-15T09:53:14.777Z,0.70
2019-06-15T09:55:44.194Z,0.60
2019-06-15T09:58:13.642Z,0.60
2019-06-15T10:00:42.370Z,0.80
2019-06-15T10:03:11.112Z,0.70
2019-06-15T10:05:40.466Z,0.80
2019-06-15T10:08:09.202Z,1.03
2019-06-15T10:10:37.906Z,0.67
2019-06-15T10:13:07.155Z,0.70
2019-06-15T10:15:35.869Z,1.10
2019-06-15T10:18:04.600Z,0.60
2019-06-15T10:20:33.406Z,0.80
2019-06-15T10:23:02.147Z,0.90
2019-06-15T10:25:30.880Z,0.73
2019-06-15T10:27:59.835Z,0.50
2019-06-15T10:30:29.268Z,0.93
2019-06-15T10:32:58.139Z,0.90
2019-06-15T10:35:27.026Z,1.30
2019-06-15T10:37:56.124Z,0.97
2019-06-15T10:40:24.835Z,1.07
2019-06-15T10:42:54.409Z,1.10
2019-06-15T10:45:23.217Z,0.93
2019-06-15T10:47:51.934Z,1.20
2019-06-15T10:50:21.163Z,1.00
2019-06-15T10:52:50.058Z,1.70
2019-06-15T10:55:18.855Z,1.37
2019-06-15T10:57:47.664Z,2.30
2019-06-15T11:00:16.601Z,1.50
2019-06-15T11:02:45.328Z,1.33
2019-06-15T11:05:14.345Z,1.20
2019-06-15T11:07:43.418Z,1.40
2019-06-15T11:10:12.516Z,1.60
2019-06-15T11:12:46.438Z,1.40
2019-06-15T11:15:12.538Z,1.50
2019-06-15T11:17:41.343Z,1.50
2019-06-15T11:20:10.096Z,1.53
2019-06-15T11:22:38.888Z,1.47
2019-06-15T11:25:07.778Z,1.50
2019-06-15T11:27:36.617Z,1.40
2019-06-15T11:30:13.665Z,1.70
2019-06-15T11:32:36.235Z,1.43
2019-06-15T11:35:05.732Z,1.60
2019-06-15T11:37:35.570Z,1.80
2019-06-15T11:40:04.600Z,1.53
2019-06-15T11:42:34.446Z,1.47
2019-06-15T11:45:03.412Z,1.63
2019-06-15T11:47:32.506Z,1.13
2019-06-15T11:50:01.845Z,1.63
2019-06-15T11:52:31.417Z,1.40
2019-06-15T11:55:00.286Z,1.80
2019-06-15T11:57:29.185Z,1.80
2019-06-15T11:59:58.603Z,1.43
2019-06-15T12:02:27.344Z,1.53
2019-06-15T12:04:58.742Z,1.47
2019-06-15T12:07:27.474Z,1.93
2019-06-15T12:09:56.901Z,1.60
2019-06-15T12:12:25.643Z,1.60
2019-06-15T12:14:54.392Z,1.50
2019-06-15T12:17:23.166Z,1.60
2019-06-15T12:19:52.190Z,1.47
2019-06-15T12:22:21.051Z,1.20
2019-06-15T12:24:49.776Z,2.00
2019-06-15T12:27:18.727Z,2.13
2019-06-15T12:29:47.435Z,1.73
2019-06-15T12:32:16.535Z,2.00
2019-06-15T12:34:45.307Z,2.50
2019-06-15T12:37:14.019Z,2.30
2019-06-15T12:39:42.904Z,1.93
2019-06-15T12:42:12.196Z,1.53
2019-06-15T12:44:41.044Z,1.97
2019-06-15T12:47:10.478Z,1.67
2019-06-15T12:49:39.543Z,1.53
2019-06-15T12:52:08.375Z,1.50
2019-06-15T12:54:37.484Z,1.90
2019-06-15T12:57:06.340Z,1.90
2019-06-15T12:59:35.176Z,2.57
2019-06-15T13:02:04.107Z,2.50
2019-06-15T13:04:33.322Z,2.00
2019-06-15T13:07:02.204Z,1.83
2019-06-15T13:09:31.340Z,2.10
2019-06-15T13:12:00.310Z,1.53
2019-06-15T13:14:29.199Z,1.97
2019-06-15T13:16:58.478Z,2.20
2019-06-15T13:19:27.258Z,1.43
2019-06-15T13:21:56.090Z,1.50
2019-06-15T13:24:24.975Z,1.50
2019-06-15T13:26:54.075Z,2.03
2019-06-15T13:29:22.791Z,1.80
2019-06-15T13:31:51.948Z,1.93
2019-06-15T13:34:20.714Z,2.00
2019-06-15T13:36:49.600Z,1.70
2019-06-15T13:39:18.911Z,1.90
2019-06-15T13:41:47.607Z,1.77
2019-06-15T13:44:16.301Z,1.43
2019-06-15T13:46:45.044Z,1.80
2019-06-15T13:49:13.924Z,1.33
2019-06-15T13:51:43.248Z,1.40
2019-06-15T13:54:12.482Z,1.23
2019-06-15T13:56:41.323Z,1.50
2019-06-15T13:59:10.055Z,1.33
2019-06-15T14:01:39.415Z,1.30
2019-06-15T14:04:08.434Z,1.50
2019-06-15T14:06:37.456Z,1.20
2019-06-15T14:09:07.379Z,1.50
2019-06-15T14:11:36.646Z,1.57
2019-06-15T14:14:05.350Z,1.37
2019-06-15T14:16:34.181Z,2.20
2019-06-15T14:19:02.908Z,1.10
2019-06-15T14:21:32.154Z,1.30
2019-06-15T14:24:01.386Z,1.37
2019-06-15T14:26:30.707Z,1.87
2019-06-15T14:28:59.507Z,1.90
2019-06-15T14:31:28.373Z,1.60
2019-06-15T14:33:57.219Z,1.50
2019-06-15T14:36:25.971Z,1.40
2019-06-15T14:38:54.715Z,1.60
2019-06-15T14:41:23.550Z,1.33
2019-06-15T14:43:52.261Z,1.57
2019-06-15T14:46:21.151Z,1.40
2019-06-15T14:48:49.908Z,1.60
2019-06-15T14:51:19.050Z,1.83
2019-06-15T14:53:55.119Z,1.60
2019-06-15T14:56:18.905Z,1.30
2019-06-15T14:58:47.862Z,1.97
2019-06-15T15:01:16.862Z,1.60
2019-06-15T15:03:47.247Z,2.00
2019-06-15T15:06:17.182Z,1.87
2019-06-15T15:08:47.233Z,1.80
2019-06-15T15:11:17.101Z,2.00
2019-06-15T15:13:47.282Z,1.70
2019-06-15T15:16:17.817Z,2.00
2019-06-15T15:18:47.377Z,2.33
2019-06-15T15:21:16.707Z,1.60
2019-06-15T15:23:46.527Z,1.37
2019-06-15T15:26:17.123Z,1.70
2019-06-15T15:28:47.190Z,1.63
2019-06-15T15:31:17.230Z,1.80
2019-06-15T15:33:47.739Z,1.80
2019-06-15T15:36:17.111Z,1.60
2019-06-15T15:38:46.989Z,1.90
2019-06-15T15:41:17.153Z,1.60
2019-06-15T15:43:46.445Z,1.97
2019-06-15T15:46:16.457Z,1.83
2019-06-15T15:48:47.054Z,2.00
2019-06-15T15:51:17.260Z,1.83
2019-06-15T15:53:46.802Z,2.60
2019-06-15T15:56:17.021Z,1.90
2019-06-15T15:58:47.112Z,2.23
2019-06-15T16:01:17.103Z,1.73
2019-06-15T16:03:47.589Z,2.30
2019-06-15T16:06:16.733Z,1.70
2019-06-15T16:08:46.928Z,2.20
2019-06-15T16:11:16.452Z,5.03
2019-06-15T16:13:47.581Z,9.37
2019-06-15T16:16:16.624Z,12.30
2019-06-15T16:18:47.044Z,12.20
2019-06-15T16:21:17.049Z,10.53
2019-06-15T16:23:46.720Z,10.23
2019-06-15T16:26:16.909Z,7.53
2019-06-15T16:28:46.313Z,7.30
2019-06-15T16:31:18.740Z,6.40
2019-06-15T16:33:46.646Z,5.47
2019-06-15T16:36:15.745Z,4.30
2019-06-15T16:38:47.016Z,4.20
2019-06-15T16:41:15.455Z,3.77
2019-06-15T16:43:46.155Z,2.93
2019-06-15T16:46:17.167Z,3.40
2019-06-15T16:48:46.811Z,2.67
2019-06-15T16:51:16.915Z,3.10
2019-06-15T16:53:47.343Z,3.17
2019-06-15T16:56:16.859Z,3.37
2019-06-15T16:58:46.874Z,2.90
2019-06-15T17:01:16.823Z,2.83
2019-06-15T17:03:46.979Z,2.77
2019-06-15T17:06:16.455Z,3.07
2019-06-15T17:08:46.447Z,2.60
2019-06-15T17:11:17.295Z,2.80
2019-06-15T17:13:47.542Z,2.60
2019-06-15T17:16:16.866Z,2.60
2019-06-15T17:18:47.094Z,2.33
2019-06-15T17:21:17.053Z,2.70
2019-06-15T17:23:46.754Z,2.07
2019-06-15T17:26:16.923Z,3.23
2019-06-15T17:28:46.279Z,2.80
2019-06-15T17:31:16.557Z,3.63
2019-06-15T17:33:46.949Z,3.17
2019-06-15T17:36:16.086Z,2.80
2019-06-15T17:38:46.277Z,3.07
2019-06-15T17:41:17.375Z,2.70
2019-06-15T17:43:47.411Z,2.93
2019-06-15T17:46:16.657Z,2.53
2019-06-15T17:48:46.754Z,2.30
2019-06-15T17:51:16.183Z,2.20
2019-06-15T17:53:47.406Z,2.20
2019-06-15T17:56:16.314Z,2.23
2019-06-15T17:58:46.353Z,1.77
2019-06-15T18:01:17.193Z,2.03
2019-06-15T18:03:53.940Z,2.27
2019-06-15T18:06:17.488Z,1.80
2019-06-15T18:08:46.551Z,1.80
2019-06-15T18:11:16.694Z,1.67
2019-06-15T18:13:47.229Z,1.80
2019-06-15T18:16:17.111Z,1.67
2019-06-15T18:18:45.815Z,1.87
2019-06-15T18:21:15.966Z,1.47
2019-06-15T18:23:46.451Z,1.90
2019-06-15T18:26:16.152Z,1.40
2019-06-15T18:28:46.885Z,1.43
2019-06-15T18:31:16.330Z,1.30
2019-06-15T18:33:47.366Z,1.67
2019-06-15T18:36:17.345Z,1.57
2019-06-15T18:38:46.646Z,1.70
2019-06-15T18:41:17.055Z,1.50
2019-06-15T18:43:46.233Z,1.50
2019-06-15T18:46:14.946Z,1.60
2019-06-15T18:48:43.779Z,1.53
2019-06-15T18:51:12.986Z,2.17
2019-06-15T18:53:41.948Z,1.90
2019-06-15T18:56:10.675Z,2.53
2019-06-15T18:58:40.055Z,2.17
2019-06-15T19:01:08.773Z,2.00
2019-06-15T19:03:37.790Z,2.00
2019-06-15T19:06:06.777Z,1.97
2019-06-15T19:08:35.975Z,1.93
2019-06-15T19:11:06.967Z,1.83
2019-06-15T19:13:36.019Z,1.97
2019-06-15T19:16:07.048Z,1.80
2019-06-15T19:18:37.039Z,1.60
2019-06-15T19:21:07.008Z,1.60
2019-06-15T19:23:36.237Z,2.00
2019-06-15T19:26:06.312Z,1.53
2019-06-15T19:28:36.974Z,1.60
2019-06-15T19:31:06.574Z,1.20
2019-06-15T19:33:37.698Z,1.37
2019-06-15T19:36:06.987Z,1.57
2019-06-15T19:38:36.222Z,1.77
2019-06-15T19:41:06.907Z,1.67
2019-06-15T19:43:36.305Z,1.80
2019-06-15T19:46:06.761Z,1.50
2019-06-15T19:48:36.848Z,1.97
2019-06-15T19:51:05.944Z,1.60
2019-06-15T19:53:36.403Z,1.47
2019-06-15T19:56:06.874Z,1.63
2019-06-15T19:58:36.159Z,1.30
2019-06-15T20:01:06.747Z,1.57
2019-06-15T20:03:36.278Z,1.73
2019-06-15T20:06:06.382Z,1.40
2019-06-15T20:08:36.184Z,1.50
2019-06-15T20:11:07.194Z,1.50
2019-06-15T20:13:37.072Z,1.63
2019-06-15T20:16:08.118Z,1.80
2019-06-15T20:18:37.539Z,1.17
2019-06-15T20:21:07.318Z,1.60
2019-06-15T20:23:37.051Z,1.57
2019-06-15T20:26:06.914Z,1.20
2019-06-15T20:28:36.147Z,1.40
2019-06-15T20:31:06.462Z,1.23
2019-06-15T20:33:36.995Z,1.40
2019-06-15T20:36:06.861Z,1.60
2019-06-15T20:38:36.367Z,1.30
2019-06-15T20:41:07.413Z,1.27
2019-06-15T20:43:36.588Z,1.40
2019-06-15T20:46:07.146Z,1.50
2019-06-15T20:48:36.451Z,1.20
2019-06-15T20:51:09.876Z,1.70
2019-06-15T20:53:36.721Z,1.57
2019-06-15T20:56:07.443Z,1.40
2019-06-15T20:58:37.454Z,1.70
2019-06-15T21:01:07.174Z,1.47
2019-06-15T21:03:36.834Z,1.60
2019-06-15T21:06:06.770Z,1.60
2019-06-15T21:08:36.475Z,1.53
2019-06-15T21:11:07.087Z,1.60
2019-06-15T21:13:37.437Z,1.37
2019-06-15T21:16:06.828Z,1.37
2019-06-15T21:18:37.150Z,1.77
2019-06-15T21:21:07.046Z,1.60
2019-06-15T21:23:37.300Z,1.50
2019-06-15T21:26:06.962Z,1.63
2019-06-15T21:28:36.833Z,1.70
2019-06-15T21:31:05.912Z,1.60
2019-06-15T21:33:36.084Z,1.80
2019-06-15T21:36:06.333Z,1.47
2019-06-15T21:38:36.090Z,1.40
2019-06-15T21:41:07.554Z,1.60
2019-06-15T21:43:36.390Z,1.33
2019-06-15T21:46:06.395Z,1.40
2019-06-15T21:48:36.437Z,1.50
2019-06-15T21:51:07.747Z,1.30
2019-06-15T21:53:36.367Z,1.60
2019-06-15T21:56:07.202Z,1.87
2019-06-15T21:58:36.756Z,1.20
2019-06-15T22:01:17.645Z,1.60
2019-06-15T22:03:46.578Z,1.70
2019-06-15T22:06:16.807Z,1.50
2019-06-15T22:08:45.770Z,1.50
2019-06-15T22:11:15.966Z,1.80
2019-06-15T22:13:46.359Z,1.87
2019-06-15T22:16:16.998Z,2.03
2019-06-15T22:18:47.523Z,2.00
2019-06-15T22:21:16.947Z,1.97
2019-06-15T22:23:47.350Z,2.30
2019-06-15T22:26:17.224Z,2.00
2019-06-15T22:28:47.044Z,1.97
2019-06-15T22:31:17.068Z,1.80
2019-06-15T22:33:47.320Z,1.90
2019-06-15T22:36:24.941Z,1.70
2019-06-15T22:38:46.932Z,2.10
2019-06-15T22:41:16.749Z,1.93
2019-06-15T22:43:46.359Z,1.70
2019-06-15T22:46:16.647Z,1.80
2019-06-15T22:48:47.096Z,1.93
2019-06-15T22:51:17.091Z,1.60
2019-06-15T22:53:47.152Z,2.00
2019-06-15T22:56:17.362Z,1.70
2019-06-15T22:58:47.004Z,1.80
2019-06-15T23:01:16.923Z,1.80
2019-06-15T23:03:46.807Z,1.70
2019-06-15T23:06:16.243Z,1.60
2019-06-15T23:08:46.967Z,1.67
2019-06-15T23:11:17.546Z,1.93
2019-06-15T23:13:47.279Z,1.97
2019-06-15T23:16:16.013Z,1.77
2019-06-15T23:18:46.709Z,2.17
2019-06-15T23:21:17.282Z,1.90
2019-06-15T23:23:47.076Z,2.17
2019-06-15T23:26:16.676Z,2.20
2019-06-15T23:28:46.774Z,1.80
2019-06-15T23:31:16.839Z,2.00
2019-06-15T23:33:46.818Z,1.90
2019-06-15T23:36:21.505Z,1.97
2019-06-15T23:38:50.239Z,1.97
2019-06-15T23:41:18.996Z,1.97
2019-06-15T23:43:47.736Z,1.90
2019-06-15T23:46:17.205Z,1.63
2019-06-15T23:48:47.003Z,1.87
2019-06-15T23:51:16.972Z,1.80
2019-06-15T23:53:46.945Z,2.00
2019-06-15T23:56:16.199Z,1.60
2019-06-15T23:58:46.365Z,1.90
